Time;durP1;ratioP1;P1;durP2;ratioP2;P2;SDS_P1;SDS_P2;PMS_P1;PMS_P2;Temp;Humidity;BMP_temperature;BMP_pressure;BME280_temperature;BME280_humidity;BME280_pressure;Samples;Min_cycle;Max_cycle;Signal;HPM_P1;HPM_P2
2023/07/19 00:02:15;;;;;;;4.40;4.10;;;;;;;29.20;43.31;99356.88;5075093;28;20336;-71
2023/07/19 00:04:41;;;;;;;4.93;4.57;;;;;;;29.20;43.17;99351.41;5074820;28;20277;-71
2023/07/19 00:07:11;;;;;;;4.93;3.90;;;;;;;29.10;43.16;99352.53;5074890;28;20250;-71
2023/07/19 00:09:38;;;;;;;4.60;4.30;;;;;;;29.13;43.54;99340.13;5074876;28;20275;-71
2023/07/19 00:12:06;;;;;;;4.70;4.40;;;;;;;29.27;43.79;99335.28;5074551;28;20257;-71
2023/07/19 00:14:32;;;;;;;4.60;4.30;;;;;;;29.39;43.35;99331.94;5074499;28;20196;-71
2023/07/19 00:16:59;;;;;;;4.27;4.07;;;;;;;29.47;46.29;99328.38;5074628;28;20257;-71
2023/07/19 00:19:26;;;;;;;4.20;3.90;;;;;;;29.47;43.37;99329.16;5074212;28;20227;-71
2023/07/19 00:21:52;;;;;;;4.53;4.23;;;;;;;29.23;43.92;99329.66;5074302;28;20269;-71
2023/07/19 00:24:20;;;;;;;4.03;3.73;;;;;;;29.00;44.22;99328.19;5074576;28;20284;-72
2023/07/19 00:26:49;;;;;;;5.53;4.10;;;;;;;29.07;44.99;99331.28;5074041;28;20196;-72
2023/07/19 00:29:16;;;;;;;4.70;4.33;;;;;;;29.17;44.02;99335.63;5074480;28;20254;-71
2023/07/19 00:31:43;;;;;;;5.40;3.97;;;;;;;29.24;44.21;99331.28;5074354;28;20199;-71
2023/07/19 00:34:10;;;;;;;4.33;4.13;;;;;;;29.28;43.93;99336.94;5074339;28;20273;-71
2023/07/19 00:36:36;;;;;;;4.20;3.90;;;;;;;29.34;45.89;99324.69;5073951;28;20257;-72
2023/07/19 00:39:04;;;;;;;3.90;3.60;;;;;;;29.42;43.63;99334.00;5074078;28;20188;-71
2023/07/19 00:41:32;;;;;;;5.17;3.83;;;;;;;29.33;43.29;99327.72;5074099;28;20241;-72
2023/07/19 00:43:59;;;;;;;6.40;3.60;;;;;;;29.23;43.37;99323.38;5073984;28;20220;-72
2023/07/19 00:46:26;;;;;;;4.47;4.23;;;;;;;29.14;43.37;99314.38;5074010;28;20196;-72
2023/07/19 00:48:53;;;;;;;4.37;4.07;;;;;;;29.07;43.93;99319.50;5072933;28;20192;-71
2023/07/19 00:51:21;;;;;;;4.20;4.00;;;;;;;29.07;44.72;99327.72;5073198;28;20253;-72
2023/07/19 00:53:49;;;;;;;4.67;3.90;;;;;;;29.00;43.93;99324.69;5074131;28;20192;-71
2023/07/19 00:56:16;;;;;;;3.97;3.77;;;;;;;28.92;44.24;99322.69;5073586;28;20196;-71
2023/07/19 00:58:45;;;;;;;4.20;4.00;;;;;;;28.86;44.88;99323.97;5073557;28;20188;-71
2023/07/19 01:01:12;;;;;;;4.73;4.43;;;;;;;29.00;44.55;99319.19;5073979;28;20199;-71
2023/07/19 01:03:38;;;;;;;4.33;3.93;;;;;;;29.05;45.01;99327.25;5073580;28;20228;-71
2023/07/19 01:06:06;;;;;;;4.53;4.23;;;;;;;29.15;45.16;99329.66;5073844;28;20196;-71
2023/07/19 01:08:33;;;;;;;3.97;3.77;;;;;;;29.21;44.77;99331.13;5073317;28;20200;-71
2023/07/19 01:11:00;;;;;;;4.30;3.97;;;;;;;29.22;44.91;99327.25;5073680;28;20250;-71
2023/07/19 01:13:27;;;;;;;4.47;4.27;;;;;;;29.19;44.10;99317.75;5073538;28;20255;-71
2023/07/19 01:15:55;;;;;;;6.50;4.20;;;;;;;29.16;44.70;99317.59;5073067;28;20261;-71
2023/07/19 01:18:22;;;;;;;8.43;4.87;;;;;;;29.19;44.88;99317.75;5073430;28;20196;-72
2023/07/19 01:20:48;;;;;;;4.87;4.43;;;;;;;29.16;45.11;99323.06;5073374;28;20192;-72
2023/07/19 01:23:16;;;;;;;4.77;3.83;;;;;;;29.10;44.67;99322.44;5073294;28;20249;-72
2023/07/19 01:25:43;;;;;;;4.80;4.50;;;;;;;28.91;44.98;99326.56;5073115;28;20249;-71
2023/07/19 01:28:10;;;;;;;5.80;4.47;;;;;;;28.68;45.79;99330.53;5073419;28;20280;-72
2023/07/19 01:30:37;;;;;;;4.60;4.30;;;;;;;28.72;45.27;99334.25;5073368;28;20192;-72
2023/07/19 01:33:04;;;;;;;4.67;3.90;;;;;;;28.67;45.92;99334.41;5073174;28;20196;-72
2023/07/19 01:35:30;;;;;;;4.70;4.30;;;;;;;28.60;45.72;99325.84;5072948;28;20227;-72
2023/07/19 01:37:57;;;;;;;4.97;4.27;;;;;;;28.62;46.00;99338.06;5073023;28;20242;-71
2023/07/19 01:40:25;;;;;;;4.77;4.37;;;;;;;28.70;46.29;99325.53;5072541;28;20192;-71
2023/07/19 01:42:52;;;;;;;5.10;4.60;;;;;;;28.74;45.80;99337.44;5072837;28;20252;-72
2023/07/19 01:45:19;;;;;;;4.40;3.93;;;;;;;28.85;46.65;99322.34;5072674;28;20216;-72
2023/07/19 01:47:46;;;;;;;11.33;4.20;;;;;;;28.97;47.03;99322.53;5072983;28;20192;-72
2023/07/19 01:50:12;;;;;;;8.63;4.43;;;;;;;29.05;45.28;99322.59;5072764;28;20257;-71
2023/07/19 01:52:41;;;;;;;10.00;4.47;;;;;;;29.05;44.74;99321.78;5073001;28;20257;-72
2023/07/19 01:55:08;;;;;;;6.03;4.20;;;;;;;29.01;45.11;99321.63;5072630;28;20272;-72
2023/07/19 01:57:36;;;;;;;3.67;3.43;;;;;;;28.99;45.88;99328.50;5072739;28;20196;-71
2023/07/19 02:00:03;;;;;;;4.70;4.30;;;;;;;29.05;45.44;99327.25;5072509;28;20196;-70
2023/07/19 02:02:30;;;;;;;4.57;4.07;;;;;;;29.06;45.81;99309.69;5072063;28;20198;-71
2023/07/19 02:04:57;;;;;;;6.00;4.03;;;;;;;29.02;45.12;99316.94;5072518;28;20285;-70
2023/07/19 02:07:23;;;;;;;4.80;4.00;;;;;;;28.97;44.61;99315.16;5054446;28;20250;-70
2023/07/19 02:09:50;;;;;;;5.80;4.23;;;;;;;28.87;45.19;99320.13;5052611;28;20611;-70
2023/07/19 02:12:17;;;;;;;5.17;4.67;;;;;;;28.68;45.62;99320.41;5052529;28;20258;-72
2023/07/19 02:14:45;;;;;;;6.30;4.10;;;;;;;28.31;46.87;99317.38;5052608;28;20586;-72
2023/07/19 02:17:11;;;;;;;4.80;4.30;;;;;;;28.16;47.95;99315.84;5052462;28;20188;-72
2023/07/19 02:19:38;;;;;;;5.03;4.57;;;;;;;27.99;48.34;99314.97;5052533;28;20197;-72
2023/07/19 02:22:05;;;;;;;5.10;4.77;;;;;;;27.94;48.49;99320.56;5051954;28;20619;-71
2023/07/19 02:24:32;;;;;;;5.43;5.00;;;;;;;27.87;48.71;99325.66;5051927;28;20758;-71
2023/07/19 02:26:59;;;;;;;5.63;5.07;;;;;;;27.97;49.37;99323.47;5051898;28;20258;-71
2023/07/19 02:29:25;;;;;;;5.20;4.80;;;;;;;27.88;48.97;99319.91;5052000;28;20215;-71
2023/07/19 02:31:54;;;;;;;4.70;4.40;;;;;;;27.72;49.36;99309.66;5052233;28;20275;-71
2023/07/19 02:34:21;;;;;;;5.20;4.73;;;;;;;27.56;49.47;99319.34;5052218;28;20260;-71
2023/07/19 02:36:48;;;;;;;5.27;4.60;;;;;;;27.47;49.80;99323.91;5052114;28;20196;-71
2023/07/19 02:39:15;;;;;;;5.30;4.90;;;;;;;27.59;49.91;99326.88;5051684;28;20192;-71
2023/07/19 02:41:43;;;;;;;4.80;4.50;;;;;;;27.62;49.72;99318.91;5051942;28;20196;-71
2023/07/19 02:44:09;;;;;;;5.30;4.80;;;;;;;27.64;50.08;99318.59;5051676;28;20224;-71
2023/07/19 02:46:36;;;;;;;4.43;4.13;;;;;;;27.73;50.52;99327.66;5051802;28;20614;-70
2023/07/19 02:49:04;;;;;;;5.30;4.40;;;;;;;27.75;49.80;99325.41;5051898;28;20200;-71
2023/07/19 02:51:31;;;;;;;6.00;4.20;;;;;;;27.82;49.49;99323.88;5051844;28;20254;-71
2023/07/19 02:53:58;;;;;;;5.40;4.83;;;;;;;27.86;49.60;99324.06;5051989;28;20200;-71
2023/07/19 02:56:24;;;;;;;6.70;5.13;;;;;;;27.88;49.50;99317.16;5051814;28;20192;-71
2023/07/19 02:58:51;;;;;;;4.87;4.57;;;;;;;27.85;49.56;99314.25;5051440;28;20196;-70
2023/07/19 03:01:18;;;;;;;4.90;4.50;;;;;;;27.90;49.54;99327.78;5051443;28;20657;-73
2023/07/19 03:03:44;;;;;;;8.57;4.83;;;;;;;27.89;49.29;99323.44;5051476;28;20626;-71
2023/07/19 03:06:13;;;;;;;6.97;4.83;;;;;;;27.77;49.62;99323.19;5059946;28;20250;-71
2023/07/19 03:08:39;;;;;;;5.37;4.70;;;;;;;27.79;49.83;99315.47;5071294;28;20191;-71
2023/07/19 03:11:08;;;;;;;4.87;4.50;;;;;;;27.86;49.61;99318.59;5071413;28;20226;-72
2023/07/19 03:13:35;;;;;;;6.43;4.90;;;;;;;27.85;49.80;99319.72;5070953;28;20192;-71
2023/07/19 03:16:02;;;;;;;11.90;5.40;;;;;;;27.92;50.50;99320.06;5071115;28;20195;-71
2023/07/19 03:18:29;;;;;;;9.17;5.53;;;;;;;27.92;50.16;99320.06;5071985;28;20196;-71
2023/07/19 03:20:57;;;;;;;11.63;5.50;;;;;;;27.92;49.66;99326.34;5071315;28;20196;-71
2023/07/19 03:23:25;;;;;;;9.17;4.43;;;;;;;27.78;50.08;99319.31;5071666;28;20196;-72
2023/07/19 03:25:52;;;;;;;4.57;4.17;;;;;;;27.93;50.10;99327.16;5071191;28;20220;-72
2023/07/19 03:28:19;;;;;;;5.03;4.40;;;;;;;28.01;49.92;99337.31;5071518;28;20188;-71
2023/07/19 03:30:45;;;;;;;6.93;4.63;;;;;;;28.10;49.55;99328.03;5071384;28;20199;-72
2023/07/19 03:33:12;;;;;;;5.20;4.63;;;;;;;28.12;49.58;99330.44;5071319;28;20257;-72
2023/07/19 03:35:39;;;;;;;5.60;4.77;;;;;;;28.18;49.71;99335.47;5071625;28;20759;-72
2023/07/19 03:38:06;;;;;;;5.40;4.87;;;;;;;28.27;49.41;99327.31;5071806;28;20196;-72
2023/07/19 03:40:34;;;;;;;5.40;4.50;;;;;;;28.40;49.69;99326.38;5071492;28;20200;-72
2023/07/19 03:43:00;;;;;;;7.33;4.77;;;;;;;28.52;49.80;99329.34;5071091;28;20253;-72
2023/07/19 03:45:28;;;;;;;14.27;5.80;;;;;;;28.64;49.93;99333.09;5071116;28;20216;-72
2023/07/19 03:47:54;;;;;;;14.13;5.20;;;;;;;28.77;49.58;99334.91;5071363;28;20604;-70
2023/07/19 03:50:21;;;;;;;10.37;5.10;;;;;;;28.81;49.79;99337.78;5071420;28;20242;-71
2023/07/19 03:52:48;;;;;;;8.90;5.40;;;;;;;28.76;49.87;99329.75;5071201;28;20196;-71
2023/07/19 03:55:15;;;;;;;7.33;5.10;;;;;;;28.73;49.73;99330.38;5071380;28;20254;-70
2023/07/19 03:57:43;;;;;;;9.47;5.30;;;;;;;28.70;49.78;99329.09;5071033;28;20541;-71
2023/07/19 04:00:10;;;;;;;10.67;4.87;;;;;;;28.88;48.92;99317.03;5070889;28;20659;-70
2023/07/19 04:02:37;;;;;;;9.73;5.53;;;;;;;29.00;48.98;99303.56;5071310;28;20196;-72
2023/07/19 04:05:04;;;;;;;20.07;6.90;;;;;;;29.18;49.07;99315.34;5070863;28;20242;-72
2023/07/19 04:07:31;;;;;;;8.57;4.97;;;;;;;29.23;47.93;99317.91;5070845;28;20671;-72
2023/07/19 04:09:58;;;;;;;6.63;5.00;;;;;;;29.27;47.63;99306.00;5071249;28;20261;-71
2023/07/19 04:12:24;;;;;;;6.27;5.03;;;;;;;29.44;47.88;99307.94;5070842;28;20203;-73
2023/07/19 04:14:53;;;;;;;8.37;5.23;;;;;;;30.04;46.94;99311.34;5070965;28;20196;-70
2023/07/19 04:17:19;;;;;;;16.17;5.50;;;;;;;30.94;44.20;99318.22;5071086;28;20217;-70
2023/07/19 04:19:46;;;;;;;5.53;5.13;;;;;;;31.70;41.19;99314.84;5070750;28;20192;-70
2023/07/19 04:22:13;;;;;;;7.47;4.80;;;;;;;32.50;39.96;99318.81;5070819;28;20192;-70
2023/07/19 04:24:40;;;;;;;8.10;5.27;;;;;;;33.06;38.47;99298.56;5072399;28;20711;-71
2023/07/19 04:27:06;;;;;;;10.33;5.00;;;;;;;33.80;37.18;99318.03;5074185;28;20283;-71
2023/07/19 04:29:33;;;;;;;24.52;5.70;;;;;;;34.52;35.62;99320.34;5074579;28;20192;-70
2023/07/19 04:32:01;;;;;;;5.72;5.00;;;;;;;35.15;34.46;99334.84;5074704;28;20188;-70
2023/07/19 04:34:28;;;;;;;19.75;5.20;;;;;;;35.75;33.40;99334.97;5074130;28;20301;-70
2023/07/19 04:36:54;;;;;;;17.38;5.65;;;;;;;35.95;32.52;99328.22;5073831;28;20192;-70
2023/07/19 04:39:21;;;;;;;12.23;4.85;;;;;;;36.16;32.88;99328.63;5074431;28;20195;-69
2023/07/19 04:41:48;;;;;;;8.48;5.22;;;;;;;36.60;31.66;99327.00;5074405;28;20214;-70
2023/07/19 04:44:15;;;;;;;13.80;5.03;;;;;;;37.28;31.05;99323.28;5074099;28;20196;-71
2023/07/19 04:46:42;;;;;;;12.13;5.00;;;;;;;37.80;30.57;99329.47;5073828;28;20227;-69
2023/07/19 04:49:10;;;;;;;20.30;5.63;;;;;;;38.06;30.01;99326.63;5073600;28;20246;-69
2023/07/19 04:51:38;;;;;;;16.08;5.05;;;;;;;38.41;29.64;99326.91;5073885;28;20196;-68
2023/07/19 04:54:05;;;;;;;20.83;5.47;;;;;;;38.87;29.15;99327.28;5073756;28;20761;-69
2023/07/19 04:56:32;;;;;;;12.80;5.05;;;;;;;39.18;28.40;99324.72;5073627;28;20200;-69
2023/07/19 04:58:58;;;;;;;12.25;5.13;;;;;;;39.33;28.15;99325.56;5073598;28;20192;-68
2023/07/19 05:01:25;;;;;;;15.18;5.00;;;;;;;39.58;27.83;99318.94;5073699;28;20195;-69
2023/07/19 05:03:52;;;;;;;19.95;5.70;;;;;;;39.79;27.88;99329.34;5073845;28;20196;-68
2023/07/19 05:06:20;;;;;;;8.05;4.30;;;;;;;40.31;26.48;99329.47;5073665;28;20220;-69
2023/07/19 05:08:46;;;;;;;21.23;5.68;;;;;;;40.56;26.67;99335.84;5073705;28;20196;-69
2023/07/19 05:11:13;;;;;;;21.98;5.18;;;;;;;40.84;25.60;99329.47;5073888;28;20253;-70
2023/07/19 05:13:40;;;;;;;9.43;4.63;;;;;;;40.51;26.29;99330.66;5073694;28;20195;-68
2023/07/19 05:16:07;;;;;;;23.48;5.97;;;;;;;40.72;26.26;99327.88;5073399;28;20228;-69
2023/07/19 05:18:34;;;;;;;9.02;4.75;;;;;;;40.89;26.40;99337.41;5073284;28;20660;-70
2023/07/19 05:21:00;;;;;;;9.63;4.57;;;;;;;41.50;25.13;99338.84;5073426;28;20265;-68
2023/07/19 05:23:28;;;;;;;13.38;4.75;;;;;;;41.75;24.30;99339.53;5073328;28;20204;-68
2023/07/19 05:25:55;;;;;;;10.13;4.78;;;;;;;42.17;24.37;99339.28;5073055;28;20289;-68
2023/07/19 05:28:22;;;;;;;5.07;4.70;;;;;;;42.30;23.71;99337.63;5073036;28;20732;-69
2023/07/19 05:30:48;;;;;;;9.80;4.75;;;;;;;42.59;23.44;99338.97;5072916;28;20192;-68
2023/07/19 05:33:15;;;;;;;12.23;5.15;;;;;;;42.81;23.26;99345.97;5073064;28;20625;-68
2023/07/19 05:35:43;;;;;;;9.93;4.82;;;;;;;42.27;24.11;99339.25;5072927;28;20293;-68
2023/07/19 05:38:10;;;;;;;6.78;4.65;;;;;;;42.53;23.33;99343.44;5073174;28;20279;-69
2023/07/19 05:40:38;;;;;;;5.18;4.38;;;;;;;42.30;24.09;99343.22;5073462;28;20227;-68
2023/07/19 05:43:05;;;;;;;7.10;4.47;;;;;;;41.86;24.34;99341.09;5072940;28;20242;-69
2023/07/19 05:45:32;;;;;;;4.85;4.35;;;;;;;41.88;24.34;99333.09;5073052;28;20246;-67
2023/07/19 05:47:59;;;;;;;4.57;4.03;;;;;;;41.81;24.31;99332.31;5073011;28;20198;-68
2023/07/19 05:50:27;;;;;;;13.20;4.97;;;;;;;42.40;23.32;99342.31;5073170;28;20283;-68
2023/07/19 05:52:54;;;;;;;16.42;4.88;;;;;;;42.67;22.47;99341.31;5072787;28;20203;-68
2023/07/19 05:55:21;;;;;;;13.80;5.70;;;;;;;42.80;22.16;99344.38;5072776;28;20196;-68
2023/07/19 05:57:49;;;;;;;9.23;5.22;;;;;;;42.51;22.73;99348.63;5072541;28;20188;-70
2023/07/19 06:00:24;;;;;;;11.98;5.75;;;;;;;42.07;23.54;99345.72;5072691;28;20269;-70
2023/07/19 06:02:51;;;;;;;15.50;5.13;;;;;;;41.93;23.26;99338.28;5072384;28;20176;-68
2023/07/19 06:05:17;;;;;;;13.40;5.07;;;;;;;41.95;23.45;99332.25;5072610;28;20219;-68
2023/07/19 06:07:44;;;;;;;11.50;5.30;;;;;;;42.09;24.09;99343.34;5072206;28;20261;-68
2023/07/19 06:10:11;;;;;;;8.60;4.70;;;;;;;42.09;23.21;99348.94;5072499;28;20664;-68
2023/07/19 06:12:38;;;;;;;7.68;3.80;;;;;;;42.26;22.98;99337.66;5072401;28;20192;-68
2023/07/19 06:15:08;;;;;;;8.23;4.07;;;;;;;42.33;22.89;99336.81;5072424;28;20188;-68
2023/07/19 06:17:35;;;;;;;7.55;4.43;;;;;;;42.41;23.02;99339.13;5072356;28;20254;-68
2023/07/19 06:20:02;;;;;;;4.10;3.80;;;;;;;42.49;22.58;99334.28;5072443;28;20199;-68
2023/07/19 06:22:29;;;;;;;7.75;3.78;;;;;;;42.17;22.84;99326.09;5072115;28;20203;-69
2023/07/19 06:24:55;;;;;;;7.25;3.70;;;;;;;42.09;23.21;99334.97;5071804;28;20192;-69
2023/07/19 06:27:22;;;;;;;13.43;4.30;;;;;;;42.11;22.71;99324.16;5071942;28;20192;-69
2023/07/19 06:29:49;;;;;;;6.50;3.85;;;;;;;41.82;22.81;99328.31;5072185;28;20196;-69
2023/07/19 06:32:17;;;;;;;13.93;4.65;;;;;;;41.89;22.41;99322.72;5072168;28;20195;-69
2023/07/19 06:34:43;;;;;;;4.15;3.75;;;;;;;41.64;23.81;99330.44;5071515;28;20228;-69
2023/07/19 06:37:10;;;;;;;5.05;4.18;;;;;;;41.70;22.90;99326.81;5071868;28;20676;-69
2023/07/19 06:39:37;;;;;;;8.43;4.25;;;;;;;41.67;23.15;99329.63;5072115;28;20261;-69
2023/07/19 06:42:04;;;;;;;8.68;3.85;;;;;;;41.57;23.50;99322.09;5072135;28;20196;-71
2023/07/19 06:44:31;;;;;;;4.43;3.40;;;;;;;41.50;23.23;99322.09;5072060;28;20283;-69
2023/07/19 06:47:00;;;;;;;4.80;3.90;;;;;;;41.53;22.95;99321.31;5072041;28;20281;-69
2023/07/19 06:49:28;;;;;;;4.47;3.50;;;;;;;41.50;22.95;99328.50;5071789;28;20188;-69
2023/07/19 06:51:55;;;;;;;4.75;3.80;;;;;;;41.83;22.80;99329.97;5072049;28;20195;-69
2023/07/19 06:54:22;;;;;;;4.35;3.65;;;;;;;41.90;22.53;99330.69;5071935;28;20260;-69
2023/07/19 06:56:48;;;;;;;4.13;3.83;;;;;;;42.01;22.24;99320.28;5071748;28;20676;-69
2023/07/19 06:59:15;;;;;;;11.30;3.92;;;;;;;41.71;22.43;99320.00;5071602;28;20187;-69
2023/07/19 07:01:42;;;;;;;3.97;3.78;;;;;;;41.40;22.71;99322.94;5071549;28;20249;-69
2023/07/19 07:04:09;;;;;;;4.50;4.10;;;;;;;41.37;23.13;99329.31;5071697;28;20226;-69
2023/07/19 07:06:37;;;;;;;5.97;4.25;;;;;;;41.28;23.39;99315.00;5071654;28;20220;-69
2023/07/19 07:09:04;;;;;;;8.15;4.30;;;;;;;41.07;23.30;99315.09;5071875;28;20199;-69
2023/07/19 07:11:30;;;;;;;4.35;4.05;;;;;;;40.92;23.54;99314.31;5071788;28;20196;-69
2023/07/19 07:13:57;;;;;;;4.53;3.72;;;;;;;41.09;23.34;99307.91;5071143;28;20196;-69
2023/07/19 07:16:24;;;;;;;8.65;4.32;;;;;;;41.28;23.62;99303.84;5071322;28;20199;-69
2023/07/19 07:18:50;;;;;;;10.13;3.97;;;;;;;41.38;23.26;99303.03;5071241;28;20655;-69
2023/07/19 07:21:18;;;;;;;4.40;4.00;;;;;;;41.29;23.49;99309.03;5071764;28;20200;-69
2023/07/19 07:23:46;;;;;;;5.28;4.25;;;;;;;41.48;23.24;99303.00;5071135;28;20562;-71
2023/07/19 07:26:12;;;;;;;8.80;4.15;;;;;;;41.47;22.84;99301.41;5071316;28;20285;-69
2023/07/19 07:28:39;;;;;;;4.45;4.05;;;;;;;41.31;22.32;99308.63;5071565;28;20249;-69
2023/07/19 07:31:08;;;;;;;5.82;3.65;;;;;;;41.34;21.91;99311.41;5071606;28;20249;-69
2023/07/19 07:33:35;;;;;;;4.68;3.47;;;;;;;41.50;21.57;99300.59;5071771;28;20195;-69
2023/07/19 07:36:02;;;;;;;5.35;3.83;;;;;;;41.66;22.89;99298.13;5071866;28;20255;-69
2023/07/19 07:38:29;;;;;;;7.60;4.03;;;;;;;41.79;22.43;99284.50;5070929;28;20246;-70
2023/07/19 07:41:00;;;;;;;220.95;19.95;;;;;;;41.66;22.76;99283.34;5070806;28;20246;-69
2023/07/19 07:43:27;;;;;;;16.35;4.60;;;;;;;41.35;22.91;99284.31;5071353;28;20192;-70
2023/07/19 07:45:55;;;;;;;4.50;3.85;;;;;;;41.58;21.87;99290.19;5070820;28;20220;-69
2023/07/19 07:48:21;;;;;;;4.38;4.00;;;;;;;41.64;21.78;99288.56;5071089;28;20191;-70
2023/07/19 07:50:51;;;;;;;6.20;4.28;;;;;;;41.27;21.68;99277.19;5071221;28;20192;-70
2023/07/19 07:53:18;;;;;;;18.35;4.28;;;;;;;41.37;22.34;99287.47;5071162;28;20195;-70
2023/07/19 07:55:45;;;;;;;8.70;4.68;;;;;;;41.43;22.41;99286.69;5071396;28;20196;-70
2023/07/19 07:58:13;;;;;;;13.77;4.68;;;;;;;41.57;22.33;99288.59;5071119;28;20545;-69
2023/07/19 08:00:41;;;;;;;4.40;4.00;;;;;;;41.66;21.91;99292.53;5074746;28;20192;-70
2023/07/19 08:03:07;;;;;;;4.78;3.55;;;;;;;41.51;21.95;99296.59;5074728;28;20204;-69
2023/07/19 08:05:34;;;;;;;4.95;3.97;;;;;;;41.42;21.64;99287.88;5071008;28;20189;-69
2023/07/19 08:08:01;;;;;;;7.88;4.05;;;;;;;41.65;21.80;99290.97;5054919;28;20192;-69
2023/07/19 08:10:28;;;;;;;5.10;3.67;;;;;;;41.74;22.09;99287.69;5054700;28;20200;-69
2023/07/19 08:12:55;;;;;;;29.10;5.22;;;;;;;41.59;21.90;99287.00;5054457;28;20246;-68
2023/07/19 08:15:23;;;;;;;4.18;3.75;;;;;;;41.14;22.55;99282.41;5054501;28;20204;-69
2023/07/19 08:17:50;;;;;;;4.47;3.97;;;;;;;41.17;22.19;99275.22;5054393;28;20188;-70
2023/07/19 08:20:17;;;;;;;5.13;4.25;;;;;;;41.19;22.50;99284.78;5054415;28;20197;-69
2023/07/19 08:22:43;;;;;;;6.05;5.47;;;;;;;41.29;22.81;99275.56;5054475;28;20207;-69
2023/07/19 08:25:10;;;;;;;4.28;3.95;;;;;;;41.47;22.57;99273.50;5054238;28;20197;-69
2023/07/19 08:27:37;;;;;;;5.22;3.95;;;;;;;41.69;21.66;99263.00;5054268;28;20221;-70
2023/07/19 08:30:07;;;;;;;4.40;3.95;;;;;;;41.91;21.58;99270.06;5054434;28;20208;-70
2023/07/19 08:32:35;;;;;;;6.25;3.60;;;;;;;42.14;22.14;99273.88;5054358;28;20649;-69
2023/07/19 08:35:01;;;;;;;3.80;3.55;;;;;;;42.10;21.93;99275.09;5054208;28;20274;-68
2023/07/19 08:37:28;;;;;;;4.40;3.72;;;;;;;41.71;21.89;99261.41;5054686;28;20197;-69
2023/07/19 08:39:55;;;;;;;4.20;3.90;;;;;;;41.54;21.67;99261.50;5054079;28;20200;-69
2023/07/19 08:42:21;;;;;;;6.78;4.15;;;;;;;41.72;21.69;99256.63;5054489;28;20189;-69
2023/07/19 08:44:48;;;;;;;5.43;3.80;;;;;;;41.74;20.96;99251.41;5053906;28;20684;-69
2023/07/19 08:47:17;;;;;;;4.55;4.20;;;;;;;41.75;21.64;99253.81;5054243;28;20220;-69
2023/07/19 08:49:47;;;;;;;4.88;3.88;;;;;;;41.92;22.09;99249.34;5054222;28;20196;-69
2023/07/19 08:52:14;;;;;;;5.88;3.92;;;;;;;41.95;21.58;99243.72;5054152;28;20192;-69
2023/07/19 08:54:41;;;;;;;13.65;4.70;;;;;;;41.66;20.97;99238.72;5053929;28;20300;-69
2023/07/19 08:57:07;;;;;;;10.13;4.00;;;;;;;41.26;21.99;99244.91;5053696;28;20196;-69
2023/07/19 08:59:35;;;;;;;4.43;4.03;;;;;;;41.02;21.39;99235.44;5053980;28;20242;-69
2023/07/19 09:02:02;;;;;;;7.13;4.10;;;;;;;41.10;21.72;99231.44;5053818;28;20199;-69
2023/07/19 09:04:29;;;;;;;7.78;4.10;;;;;;;41.29;22.03;99228.16;5053582;28;20219;-69
2023/07/19 09:06:57;;;;;;;5.97;4.13;;;;;;;41.32;21.84;99232.13;5068272;28;20308;-69
2023/07/19 09:09:23;;;;;;;7.15;4.40;;;;;;;41.43;21.33;99224.53;5073361;28;20188;-69
2023/07/19 09:11:50;;;;;;;7.28;4.60;;;;;;;41.65;21.30;99225.97;5072172;28;20552;-69
2023/07/19 09:14:17;;;;;;;4.20;3.90;;;;;;;41.85;22.25;99215.88;5073637;28;20276;-69
2023/07/19 09:16:46;;;;;;;4.40;4.00;;;;;;;41.46;21.88;99218.09;5073636;28;20288;-69
2023/07/19 09:19:12;;;;;;;4.18;3.50;;;;;;;41.25;21.55;99215.41;5073230;28;20741;-69
2023/07/19 09:21:42;;;;;;;4.22;3.83;;;;;;;41.41;21.05;99207.34;5073469;28;20199;-69
2023/07/19 09:24:13;;;;;;;4.13;3.83;;;;;;;41.57;21.11;99199.31;5073761;28;20192;-69
2023/07/19 09:26:49;;;;;;;8.65;4.53;;;;;;;41.55;21.85;99210.88;5072909;28;20208;-69
2023/07/19 09:29:16;;;;;;;4.68;3.88;;;;;;;41.40;20.83;99206.59;5072993;28;20604;-69
2023/07/19 09:31:54;;;;;;;9.23;3.95;;;;;;;41.14;21.66;99206.34;5073051;28;20242;-69
2023/07/19 09:34:22;;;;;;;4.47;4.10;;;;;;;41.21;21.83;99198.72;5073059;28;20223;-69
2023/07/19 09:36:51;;;;;;;4.82;3.60;;;;;;;41.37;21.33;99189.84;5072685;28;20565;-69
2023/07/19 09:39:19;;;;;;;6.63;4.15;;;;;;;41.59;20.94;99192.13;5072911;28;20196;-70
2023/07/19 09:41:46;;;;;;;5.28;4.20;;;;;;;41.80;21.11;99185.59;5073048;28;20196;-70
2023/07/19 09:44:15;;;;;;;4.70;4.30;;;;;;;41.92;20.51;99185.13;5073066;28;20280;-70
2023/07/19 09:46:42;;;;;;;4.47;4.28;;;;;;;42.00;20.94;99178.28;5072458;28;20666;-69
2023/07/19 09:49:09;;;;;;;4.75;3.72;;;;;;;42.06;19.55;99176.63;5072789;28;20664;-69
2023/07/19 09:51:38;;;;;;;3.90;3.60;;;;;;;42.00;19.97;99175.50;5072511;28;20191;-69
2023/07/19 09:54:09;;;;;;;4.38;3.75;;;;;;;41.90;20.72;99167.97;5072673;28;20192;-69
2023/07/19 09:56:38;;;;;;;39.45;6.88;;;;;;;41.46;21.38;99165.09;5072699;28;20188;-70
2023/07/19 09:59:07;;;;;;;4.03;3.72;;;;;;;41.23;21.84;99162.06;5072595;28;20243;-69
2023/07/19 10:01:35;;;;;;;15.38;5.50;;;;;;;41.49;21.12;99153.13;5072406;28;20627;-69
2023/07/19 10:04:02;;;;;;;7.15;3.65;;;;;;;41.45;20.56;99157.94;5072503;28;20214;-69
2023/07/19 10:06:31;;;;;;;7.63;3.78;;;;;;;40.80;20.85;99147.53;5072106;28;20303;-69
2023/07/19 10:09:32;;;;;;;6.22;3.63;;;;;;;40.47;20.95;99150.81;5072839;28;20253;-69
2023/07/19 10:12:07;;;;;;;3.78;3.40;;;;;;;40.28;20.68;99148.47;5072716;28;20191;-69
2023/07/19 10:14:34;;;;;;;6.90;3.42;;;;;;;40.26;21.50;99139.72;5072681;28;20245;-68
2023/07/19 10:17:03;;;;;;;4.20;3.90;;;;;;;40.22;21.00;99142.50;5072257;28;20250;-70
2023/07/19 10:19:30;;;;;;;9.52;3.80;;;;;;;40.42;20.70;99143.66;5072266;28;20279;-69
2023/07/19 10:22:04;;;;;;;4.03;3.72;;;;;;;40.67;21.13;99133.22;5072138;28;20192;-69
2023/07/19 10:24:32;;;;;;;3.97;3.60;;;;;;;39.80;21.49;99136.97;5072455;28;20195;-69
2023/07/19 10:27:04;;;;;;;4.03;3.60;;;;;;;39.99;21.56;99133.78;5072493;28;20224;-69
2023/07/19 10:29:39;;;;;;;4.32;4.07;;;;;;;39.88;21.10;99138.56;5072256;28;20547;-71
2023/07/19 10:32:07;;;;;;;8.35;4.40;;;;;;;39.86;21.84;99132.63;5072053;28;20183;-70
2023/07/19 10:34:33;;;;;;;6.78;3.92;;;;;;;39.87;21.86;99131.41;5072109;28;20227;-70
2023/07/19 10:37:04;;;;;;;7.72;3.60;;;;;;;39.43;21.50;99130.19;5072252;28;20195;-70
2023/07/19 10:39:30;;;;;;;3.90;3.60;;;;;;;39.86;20.72;99129.84;5071675;28;20621;-69
2023/07/19 10:41:57;;;;;;;3.97;3.78;;;;;;;40.22;20.40;99131.38;5071931;28;20214;-69
2023/07/19 10:44:27;;;;;;;4.65;4.03;;;;;;;40.27;20.54;99133.75;5071678;28;20664;-70
2023/07/19 10:46:54;;;;;;;12.25;4.20;;;;;;;40.42;20.88;99129.72;5071512;28;20605;-70
2023/07/19 10:49:22;;;;;;;4.07;3.67;;;;;;;40.50;20.51;99120.16;5072049;28;20282;-70
2023/07/19 10:51:53;;;;;;;3.60;3.40;;;;;;;40.16;20.42;99121.81;5071916;28;20196;-69
2023/07/19 10:54:19;;;;;;;4.07;3.63;;;;;;;40.15;20.44;99116.66;5071934;28;20200;-70
2023/07/19 10:56:48;;;;;;;3.95;3.70;;;;;;;40.14;20.85;99113.09;5071769;28;20192;-70
2023/07/19 10:59:15;;;;;;;4.25;3.85;;;;;;;40.47;20.11;99107.06;5071747;28;20196;-70
2023/07/19 11:01:44;;;;;;;13.52;3.80;;;;;;;40.55;20.01;99108.63;5071360;28;20245;-71
2023/07/19 11:04:10;;;;;;;3.60;3.40;;;;;;;40.78;19.42;99103.34;5071524;28;20241;-71
2023/07/19 11:06:39;;;;;;;3.95;3.50;;;;;;;40.81;18.47;99099.75;5071384;28;20192;-70
2023/07/19 11:09:05;;;;;;;6.15;3.50;;;;;;;40.90;19.14;99099.28;5071267;28;20674;-70
2023/07/19 11:11:35;;;;;;;3.97;3.70;;;;;;;41.10;19.97;99092.03;5071684;28;20196;-70
2023/07/19 11:14:02;;;;;;;22.55;5.15;;;;;;;41.07;20.00;99086.47;5071801;28;20223;-70
2023/07/19 11:16:29;;;;;;;16.98;4.13;;;;;;;41.14;20.63;99092.03;5071331;28;20691;-70
2023/07/19 11:18:57;;;;;;;12.73;5.45;;;;;;;41.22;19.71;99083.19;5071768;28;20274;-70
2023/07/19 11:21:25;;;;;;;7.57;4.03;;;;;;;41.19;18.85;99083.22;5071337;28;20607;-70
2023/07/19 11:23:52;;;;;;;4.60;3.60;;;;;;;41.16;19.32;99084.81;5071576;28;20191;-70
2023/07/19 11:26:19;;;;;;;5.40;4.18;;;;;;;41.03;19.23;99070.56;5071325;28;20195;-70
2023/07/19 11:28:47;;;;;;;3.72;3.42;;;;;;;41.06;18.93;99076.53;5071764;28;20219;-69
2023/07/19 11:31:33;;;;;;;6.88;3.78;;;;;;;40.76;19.13;99077.88;5071557;28;20203;-70
2023/07/19 11:34:07;;;;;;;24.33;4.90;;;;;;;40.95;19.07;99074.56;5072587;28;20302;-71